createdAt,value
2023-03-21T00:01:00.343Z,57.78
2023-03-21T00:03:30.728Z,58.20
2023-03-21T00:06:00.881Z,57.83
2023-03-21T00:08:31.359Z,58.53
2023-03-21T00:11:02.436Z,58.40
2023-03-21T00:13:34.357Z,57.40
2023-03-21T00:16:26.353Z,60.03
2023-03-21T00:19:04.800Z,58.30
2023-03-21T00:21:52.343Z,59.53
2023-03-21T00:24:30.182Z,60.20
2023-03-21T00:27:21.913Z,60.50
2023-03-21T00:29:51.907Z,58.38
2023-03-21T00:32:23.133Z,58.88
2023-03-21T00:35:08.107Z,57.47
2023-03-21T00:37:44.640Z,61.10
2023-03-21T00:40:25.682Z,61.17
2023-03-21T00:42:59.347Z,59.38
2023-03-21T00:45:30.160Z,56.40
2023-03-21T00:48:01.002Z,57.67
2023-03-21T00:50:32.071Z,57.38
2023-03-21T00:53:02.650Z,57.97
2023-03-21T00:55:33.568Z,60.55
2023-03-21T00:58:03.778Z,56.47
2023-03-21T01:00:40.847Z,57.47
2023-03-21T01:03:23.734Z,61.05
2023-03-21T01:06:07.512Z,58.78
2023-03-21T01:08:54.778Z,61.05
2023-03-21T01:11:27.206Z,62.20
2023-03-21T01:14:10.781Z,60.40
2023-03-21T01:16:48.340Z,58.47
2023-03-21T01:19:50.830Z,57.33
2023-03-21T01:22:10.750Z,57.65
2023-03-21T01:24:52.551Z,58.47
2023-03-21T01:27:25.302Z,56.30
2023-03-21T01:29:55.674Z,58.45
2023-03-21T01:32:26.533Z,57.67
2023-03-21T01:34:57.236Z,55.97
2023-03-21T01:37:28.194Z,58.10
2023-03-21T01:39:58.536Z,57.28
2023-03-21T01:42:28.928Z,56.25
2023-03-21T01:45:09.236Z,55.40
2023-03-21T01:47:45.481Z,57.55
2023-03-21T01:50:35.394Z,59.05
2023-03-21T01:53:24.823Z,54.38
2023-03-21T01:55:55.625Z,54.70
2023-03-21T01:58:45.559Z,56.25
2023-03-21T02:01:36.384Z,56.70
2023-03-21T02:04:10.668Z,52.55
2023-03-21T02:07:03.612Z,54.47
2023-03-21T02:09:41.863Z,54.50
2023-03-21T02:12:20.254Z,56.08
2023-03-21T02:14:52.664Z,60.13
2023-03-21T02:17:52.069Z,60.85
2023-03-21T02:20:51.149Z,52.97
2023-03-21T02:23:45.950Z,53.17
2023-03-21T02:26:42.010Z,56.65
2023-03-21T02:29:36.654Z,56.13
2023-03-21T02:32:37.102Z,53.15
2023-03-21T02:35:30.818Z,51.20
2023-03-21T02:38:20.882Z,53.40
2023-03-21T02:40:54.759Z,52.40
2023-03-21T02:43:30.725Z,52.67
2023-03-21T02:46:05.021Z,52.70
2023-03-21T02:48:50.580Z,53.28
2023-03-21T02:51:24.426Z,51.15
2023-03-21T02:54:26.102Z,50.95
2023-03-21T02:56:53.180Z,48.08
2023-03-21T02:59:25.308Z,50.58
2023-03-21T03:01:57.863Z,48.13
2023-03-21T03:04:29.152Z,45.75
2023-03-21T03:07:09.386Z,44.60
2023-03-21T03:09:59.114Z,46.22
2023-03-21T03:12:48.792Z,44.42
2023-03-21T03:15:40.162Z,48.17
2023-03-21T03:18:30.663Z,53.45
2023-03-21T03:21:20.266Z,46.88
2023-03-21T03:24:10.440Z,45.95
2023-03-21T03:26:50.886Z,44.38
2023-03-21T03:29:23.497Z,39.55
2023-03-21T03:31:58.816Z,37.95
2023-03-21T03:34:41.090Z,38.03
2023-03-21T03:37:16.527Z,38.33
2023-03-21T03:39:49.207Z,37.50
2023-03-21T03:42:39.573Z,39.72
2023-03-21T03:45:20.587Z,39.95
2023-03-21T03:47:57.749Z,41.28
2023-03-21T03:50:35.597Z,36.25
2023-03-21T03:53:25.999Z,37.78
2023-03-21T03:55:59.030Z,36.30
2023-03-21T03:58:43.043Z,37.20
2023-03-21T04:01:17.538Z,36.65
2023-03-21T04:04:00.990Z,35.10
2023-03-21T04:06:37.487Z,36.55
2023-03-21T04:09:20.613Z,36.17
2023-03-21T04:11:54.156Z,36.88
2023-03-21T04:14:25.605Z,39.70
2023-03-21T04:16:57.204Z,36.45
2023-03-21T04:19:28.756Z,38.13
2023-03-21T04:21:59.001Z,38.65
2023-03-21T04:24:29.975Z,34.58
2023-03-21T04:27:00.576Z,37.45
2023-03-21T04:29:40.795Z,35.60
2023-03-21T04:32:35.342Z,36.63
2023-03-21T04:35:12.900Z,35.85
2023-03-21T04:37:43.899Z,40.80
2023-03-21T04:40:19.379Z,41.00
2023-03-21T04:42:50.607Z,38.60
2023-03-21T04:45:21.094Z,36.42
2023-03-21T04:47:51.496Z,38.28
2023-03-21T04:50:22.459Z,37.20
2023-03-21T04:52:53.207Z,38.03
2023-03-21T04:55:23.304Z,37.67
2023-03-21T04:57:53.585Z,35.10
2023-03-21T05:00:25.236Z,36.88
2023-03-21T05:02:55.479Z,35.22
2023-03-21T05:05:25.424Z,34.38
2023-03-21T05:07:55.971Z,34.67
2023-03-21T05:10:26.413Z,34.45
2023-03-21T05:12:56.545Z,33.38
2023-03-21T05:15:27.045Z,34.83
2023-03-21T05:18:00.180Z,32.60
2023-03-21T05:20:30.623Z,32.53
2023-03-21T05:23:01.902Z,31.52
2023-03-21T05:25:40.084Z,30.33
2023-03-21T05:28:19.684Z,31.00
2023-03-21T05:30:51.644Z,29.73
2023-03-21T05:33:22.045Z,29.13
2023-03-21T05:35:55.611Z,29.25
2023-03-21T05:38:28.100Z,28.73
2023-03-21T05:40:59.238Z,29.27
2023-03-21T05:43:29.655Z,29.85
2023-03-21T05:46:00.703Z,29.20
2023-03-21T05:48:33.344Z,29.30
2023-03-21T05:51:15.305Z,28.95
2023-03-21T05:53:45.826Z,29.63
2023-03-21T05:56:18.004Z,29.20
2023-03-21T05:58:54.272Z,29.23
2023-03-21T06:01:26.136Z,28.63
2023-03-21T06:04:08.449Z,28.40
2023-03-21T06:06:39.325Z,27.55
2023-03-21T06:09:09.543Z,26.48
2023-03-21T06:11:49.935Z,27.63
2023-03-21T06:14:40.021Z,27.48
2023-03-21T06:17:20.868Z,27.42
2023-03-21T06:19:56.433Z,26.42
2023-03-21T06:22:31.857Z,27.15
2023-03-21T06:25:03.990Z,27.40
2023-03-21T06:27:34.443Z,27.85
2023-03-21T06:30:04.680Z,27.05
2023-03-21T06:32:40.104Z,27.90
2023-03-21T06:35:15.105Z,26.58
2023-03-21T06:37:47.578Z,26.42
2023-03-21T06:40:19.082Z,28.05
2023-03-21T06:42:49.662Z,27.23
2023-03-21T06:45:20.585Z,27.20
2023-03-21T06:47:51.189Z,27.38
2023-03-21T06:50:34.980Z,26.35
2023-03-21T06:53:05.926Z,26.02
2023-03-21T06:55:52.186Z,25.70
2023-03-21T06:58:23.569Z,25.50
2023-03-21T07:00:54.144Z,26.45
2023-03-21T07:03:25.108Z,25.27
2023-03-21T07:05:56.438Z,25.52
2023-03-21T07:08:27.240Z,25.52
2023-03-21T07:10:59.525Z,24.92
2023-03-21T07:13:29.760Z,25.13
2023-03-21T07:16:05.952Z,26.17
2023-03-21T07:18:36.303Z,25.40
2023-03-21T07:21:07.468Z,26.10
2023-03-21T07:23:39.814Z,26.10
2023-03-21T07:26:10.153Z,25.42
2023-03-21T07:28:41.933Z,27.17
2023-03-21T07:31:16.076Z,26.33
2023-03-21T07:33:46.348Z,26.10
2023-03-21T07:36:17.861Z,25.55
2023-03-21T07:38:48.892Z,25.48
2023-03-21T07:41:24.114Z,25.90
2023-03-21T07:43:54.558Z,25.67
2023-03-21T07:46:24.809Z,25.08
2023-03-21T07:48:54.825Z,24.92
2023-03-21T07:51:24.989Z,24.30
2023-03-21T07:53:55.347Z,25.52
2023-03-21T07:56:25.491Z,23.23
2023-03-21T07:58:55.678Z,24.65
2023-03-21T08:01:26.354Z,24.60
2023-03-21T08:03:56.499Z,25.17
2023-03-21T08:06:30.859Z,25.90
2023-03-21T08:09:01.400Z,23.38
2023-03-21T08:11:34.941Z,23.98
2023-03-21T08:14:05.868Z,24.00
2023-03-21T08:16:36.160Z,24.42
2023-03-21T08:19:06.711Z,24.25
2023-03-21T08:21:36.940Z,25.50
2023-03-21T08:24:08.675Z,23.85
2023-03-21T08:26:39.795Z,24.02
2023-03-21T08:29:10.465Z,25.70
2023-03-21T08:31:42.996Z,23.27
2023-03-21T08:34:15.212Z,24.73
2023-03-21T08:36:45.369Z,25.70
2023-03-21T08:39:15.698Z,26.38
2023-03-21T08:41:46.102Z,24.63
2023-03-21T08:44:18.448Z,25.42
2023-03-21T08:46:48.742Z,24.90
2023-03-21T08:49:19.184Z,24.70
2023-03-21T08:51:49.412Z,24.42
2023-03-21T08:54:22.218Z,24.25
2023-03-21T08:56:52.703Z,24.40
2023-03-21T08:59:23.226Z,24.65
2023-03-21T09:01:53.810Z,24.67
2023-03-21T09:04:27.479Z,24.75
2023-03-21T09:06:58.092Z,24.13
2023-03-21T09:09:29.312Z,25.25
2023-03-21T09:11:59.914Z,24.30
2023-03-21T09:14:30.118Z,23.77
2023-03-21T09:17:00.585Z,23.92
2023-03-21T09:19:31.561Z,23.85
2023-03-21T09:22:01.807Z,24.55
2023-03-21T09:24:32.784Z,23.83
2023-03-21T09:27:03.641Z,24.63
2023-03-21T09:29:34.057Z,23.38
2023-03-21T09:32:05.696Z,23.92
2023-03-21T09:34:36.071Z,24.25
2023-03-21T09:37:11.789Z,23.15
2023-03-21T09:39:44.452Z,24.05
2023-03-21T09:42:34.348Z,22.98
2023-03-21T09:45:19.068Z,22.65
2023-03-21T09:47:54.786Z,22.60
2023-03-21T09:50:35.016Z,23.38
2023-03-21T09:53:25.283Z,24.45
2023-03-21T09:55:58.919Z,24.05
2023-03-21T09:58:32.874Z,23.45
2023-03-21T10:01:12.689Z,23.85
2023-03-21T10:03:43.424Z,25.75
2023-03-21T10:06:17.250Z,23.58
2023-03-21T10:08:49.631Z,25.27
2023-03-21T10:11:23.260Z,25.40
2023-03-21T10:13:57.251Z,24.23
2023-03-21T10:16:37.792Z,24.77
2023-03-21T10:19:13.095Z,31.25
2023-03-21T10:22:00.162Z,25.45
2023-03-21T10:24:34.237Z,25.85
2023-03-21T10:27:06.046Z,27.00
2023-03-21T10:29:43.794Z,25.88
2023-03-21T10:32:16.412Z,26.10
2023-03-21T10:37:28.489Z,25.25
2023-03-21T10:39:58.769Z,26.70
2023-03-21T10:42:34.415Z,25.90
2023-03-21T10:45:04.893Z,24.23
2023-03-21T10:47:36.912Z,25.73
2023-03-21T10:50:11.842Z,28.45
2023-03-21T10:52:53.250Z,27.10
2023-03-21T10:55:26.812Z,30.92
2023-03-21T10:58:00.556Z,29.27
2023-03-21T11:00:37.802Z,25.83
2023-03-21T11:03:08.550Z,25.73
2023-03-21T11:05:43.272Z,25.83
2023-03-21T11:08:15.234Z,28.27
2023-03-21T11:11:06.375Z,28.67
2023-03-21T11:13:39.560Z,28.73
2023-03-21T11:16:12.446Z,27.67
2023-03-21T11:18:47.036Z,28.75
2023-03-21T11:21:18.520Z,28.67
2023-03-21T11:23:50.098Z,31.33
2023-03-21T11:26:39.750Z,33.50
2023-03-21T11:29:29.574Z,33.10
2023-03-21T11:32:00.921Z,34.97
2023-03-21T11:34:34.623Z,41.17
2023-03-21T11:37:05.958Z,39.40
2023-03-21T11:39:42.560Z,39.65
2023-03-21T11:42:30.896Z,37.92
2023-03-21T11:45:20.885Z,38.75
2023-03-21T11:47:52.909Z,40.83
2023-03-21T11:50:31.062Z,43.60
2023-03-21T11:53:21.257Z,45.15
2023-03-21T11:56:11.203Z,48.13
2023-03-21T11:59:02.845Z,38.38
2023-03-21T12:01:52.562Z,38.22
2023-03-21T12:04:31.018Z,35.83
2023-03-21T12:07:21.925Z,36.13
2023-03-21T12:10:11.892Z,32.42
2023-03-21T12:13:01.582Z,33.28
2023-03-21T12:15:53.709Z,34.15
2023-03-21T12:18:45.055Z,35.83
2023-03-21T12:21:35.184Z,37.17
2023-03-21T12:24:24.882Z,39.00
2023-03-21T12:27:09.206Z,40.08
2023-03-21T12:29:59.017Z,43.67
2023-03-21T12:32:50.868Z,43.00
2023-03-21T12:35:40.898Z,45.13
2023-03-21T12:38:18.236Z,42.67
2023-03-21T12:41:08.295Z,39.45
2023-03-21T12:43:57.290Z,38.13
2023-03-21T12:46:47.078Z,39.88
2023-03-21T12:49:37.485Z,38.65
2023-03-21T12:52:10.391Z,38.67
2023-03-21T12:55:00.090Z,40.53
2023-03-21T12:57:35.633Z,39.95
2023-03-21T13:00:25.784Z,43.00
2023-03-21T13:02:58.133Z,37.97
2023-03-21T13:05:33.927Z,37.38
2023-03-21T13:08:23.829Z,37.38
2023-03-21T13:10:54.936Z,37.20
2023-03-21T13:13:37.034Z,35.13
2023-03-21T13:16:27.055Z,34.33
2023-03-21T13:19:17.204Z,37.10
2023-03-21T13:21:53.970Z,35.50
2023-03-21T13:24:48.861Z,44.97
2023-03-21T13:27:31.086Z,45.42
2023-03-21T13:30:10.157Z,32.90
2023-03-21T13:32:45.290Z,31.90
2023-03-21T13:35:17.549Z,35.65
2023-03-21T13:37:55.274Z,39.92
2023-03-21T13:40:27.673Z,43.38
2023-03-21T13:43:00.861Z,44.72
2023-03-21T13:45:37.434Z,62.10
2023-03-21T13:48:09.174Z,73.85
2023-03-21T13:50:53.416Z,67.82
2023-03-21T13:53:25.442Z,57.55
2023-03-21T13:56:15.324Z,53.20
2023-03-21T13:59:03.339Z,47.17
2023-03-21T14:01:35.791Z,46.05
2023-03-21T14:04:15.132Z,43.92
2023-03-21T14:07:05.085Z,44.10
2023-03-21T14:09:54.672Z,53.60
2023-03-21T14:12:31.626Z,60.75
2023-03-21T14:15:13.956Z,53.42
2023-03-21T14:17:54.478Z,51.63
2023-03-21T14:20:29.597Z,43.63
2023-03-21T14:23:00.645Z,43.53
2023-03-21T14:25:40.980Z,38.00
2023-03-21T14:28:26.510Z,35.70
2023-03-21T14:31:02.124Z,34.95
2023-03-21T14:33:37.926Z,37.00
2023-03-21T14:36:10.517Z,52.42
2023-03-21T14:38:41.955Z,51.60
2023-03-21T14:41:25.939Z,51.35
2023-03-21T14:44:15.825Z,45.97
2023-03-21T14:46:46.641Z,35.97
2023-03-21T14:49:36.363Z,33.28
2023-03-21T14:52:08.739Z,32.80
2023-03-21T14:54:41.821Z,31.38
2023-03-21T14:57:14.294Z,33.88
2023-03-21T14:59:45.211Z,46.67
2023-03-21T15:02:23.338Z,32.78
2023-03-21T15:04:55.916Z,31.58
2023-03-21T15:07:27.675Z,31.25
2023-03-21T15:09:59.225Z,32.22
2023-03-21T15:12:29.732Z,37.28
2023-03-21T15:15:00.666Z,46.33
2023-03-21T15:17:32.144Z,50.17
2023-03-21T15:20:02.807Z,44.00
2023-03-21T15:22:39.052Z,42.78
2023-03-21T15:25:10.678Z,40.10
2023-03-21T15:27:43.170Z,36.15
2023-03-21T15:30:22.092Z,32.85
2023-03-21T15:32:53.111Z,32.95
2023-03-21T15:35:34.899Z,34.17
2023-03-21T15:38:06.745Z,33.25
2023-03-21T15:40:37.587Z,31.88
2023-03-21T15:43:09.010Z,33.35
2023-03-21T15:45:48.634Z,33.08
2023-03-21T15:48:19.880Z,33.33
2023-03-21T15:51:09.467Z,34.28
2023-03-21T15:53:40.386Z,33.80
2023-03-21T15:56:17.843Z,34.80
2023-03-21T15:58:50.729Z,34.20
2023-03-21T16:01:22.517Z,34.92
2023-03-21T16:04:01.779Z,34.92
2023-03-21T16:06:35.940Z,34.05
2023-03-21T16:09:11.879Z,34.10
2023-03-21T16:11:46.161Z,34.85
2023-03-21T16:14:16.797Z,34.90
2023-03-21T16:16:51.079Z,35.67
2023-03-21T16:19:21.407Z,35.30
2023-03-21T16:21:52.004Z,35.58
2023-03-21T16:24:22.473Z,36.08
2023-03-21T16:26:55.022Z,35.90
2023-03-21T16:29:25.305Z,36.25
2023-03-21T16:31:56.197Z,36.25
2023-03-21T16:34:26.448Z,36.05
2023-03-21T16:36:56.590Z,36.00
2023-03-21T16:39:28.224Z,37.17
2023-03-21T16:41:58.573Z,36.63
2023-03-21T16:44:29.570Z,36.70
2023-03-21T16:47:02.066Z,36.53
2023-03-21T16:49:33.208Z,37.05
2023-03-21T16:52:04.894Z,36.75
2023-03-21T16:54:35.731Z,36.03
2023-03-21T16:57:09.351Z,36.67
2023-03-21T16:59:40.774Z,38.65
2023-03-21T17:02:15.574Z,35.58
2023-03-21T17:04:46.260Z,35.83
2023-03-21T17:07:17.012Z,36.78
2023-03-21T17:09:48.436Z,38.90
2023-03-21T17:12:19.309Z,38.90
2023-03-21T17:14:49.896Z,37.75
2023-03-21T17:17:20.383Z,37.10
2023-03-21T17:19:50.949Z,38.63
2023-03-21T17:22:21.136Z,38.33
2023-03-21T17:24:51.940Z,39.13
2023-03-21T17:27:22.316Z,39.70
2023-03-21T17:29:55.249Z,41.03
2023-03-21T17:32:26.295Z,46.65
2023-03-21T17:34:57.088Z,45.35
2023-03-21T17:37:27.817Z,42.90
2023-03-21T17:39:58.034Z,41.78
2023-03-21T17:42:28.694Z,41.58
2023-03-21T17:44:58.991Z,42.05
2023-03-21T17:47:31.474Z,39.35
2023-03-21T17:50:01.650Z,42.17
2023-03-21T17:52:31.727Z,39.67
2023-03-21T17:55:02.547Z,39.22
2023-03-21T17:57:32.886Z,39.80
2023-03-21T18:00:03.497Z,39.83
2023-03-21T18:02:42.574Z,36.72
2023-03-21T18:05:13.422Z,40.15
2023-03-21T18:08:08.926Z,42.85
2023-03-21T18:10:34.671Z,45.85
2023-03-21T18:13:05.286Z,46.35
2023-03-21T18:15:37.951Z,41.00
2023-03-21T18:18:09.523Z,42.85
2023-03-21T18:20:51.771Z,41.45
2023-03-21T18:23:22.762Z,43.80
2023-03-21T18:25:54.060Z,44.50
2023-03-21T18:28:24.923Z,44.72
2023-03-21T18:31:16.863Z,44.88
2023-03-21T18:33:46.675Z,43.88
2023-03-21T18:36:24.684Z,43.92
2023-03-21T18:38:57.967Z,45.13
2023-03-21T18:41:28.348Z,42.33
2023-03-21T18:44:05.284Z,44.05
2023-03-21T18:46:48.695Z,42.78
2023-03-21T18:50:01.974Z,43.88
2023-03-21T18:52:10.904Z,42.33
2023-03-21T18:54:42.066Z,42.25
2023-03-21T18:57:35.055Z,41.28
2023-03-21T19:00:03.442Z,42.13
2023-03-21T19:02:33.635Z,42.78
2023-03-21T19:05:04.180Z,41.00
2023-03-21T19:07:34.525Z,44.80
2023-03-21T19:10:17.417Z,41.45
2023-03-21T19:12:50.046Z,43.72
2023-03-21T19:15:23.423Z,41.60
2023-03-21T19:20:46.642Z,53.88
2023-03-21T19:23:17.729Z,55.85
2023-03-21T19:25:49.436Z,55.53
2023-03-21T19:28:19.644Z,56.30
2023-03-21T19:30:50.963Z,56.28
2023-03-21T19:33:22.576Z,58.45
2023-03-21T19:36:09.194Z,57.15
2023-03-21T19:38:41.527Z,57.58
2023-03-21T19:41:11.742Z,44.42
2023-03-21T19:43:52.818Z,44.38
2023-03-21T19:46:26.141Z,41.85
2023-03-21T19:48:57.206Z,42.45
2023-03-21T19:51:30.671Z,44.08
2023-03-21T19:54:01.983Z,43.17
2023-03-21T19:56:32.248Z,45.53
2023-03-21T19:59:04.336Z,41.90
2023-03-21T20:01:34.817Z,44.53
2023-03-21T20:04:05.016Z,44.53
2023-03-21T20:06:35.727Z,43.85
2023-03-21T20:09:47.249Z,46.22
2023-03-21T20:11:59.206Z,46.08
2023-03-21T20:14:29.512Z,48.85
2023-03-21T20:17:00.351Z,50.28
2023-03-21T20:19:30.923Z,49.83
2023-03-21T20:22:02.844Z,48.95
2023-03-21T20:24:33.579Z,50.00
2023-03-21T20:27:04.584Z,48.97
2023-03-21T20:32:25.278Z,44.42
2023-03-21T20:35:07.635Z,45.20
2023-03-21T20:37:52.565Z,44.28
2023-03-21T20:40:24.232Z,46.75
2023-03-21T20:42:59.963Z,45.83
2023-03-21T20:45:32.315Z,45.80
2023-03-21T20:48:02.239Z,46.58
2023-03-21T20:50:34.019Z,46.22
2023-03-21T20:53:07.482Z,45.95
2023-03-21T20:55:38.798Z,45.55
2023-03-21T20:58:30.035Z,47.53
2023-03-21T21:01:05.289Z,46.90
2023-03-21T21:03:42.655Z,46.70
2023-03-21T21:06:21.580Z,46.50
2023-03-21T21:08:52.129Z,46.97
2023-03-21T21:14:12.395Z,48.15
2023-03-21T21:16:42.653Z,49.33
2023-03-21T21:19:13.501Z,47.33
2023-03-21T21:21:44.248Z,47.47
2023-03-21T21:24:14.927Z,50.30
2023-03-21T21:26:47.624Z,48.35
2023-03-21T21:29:18.789Z,49.22
2023-03-21T21:31:51.414Z,49.72
2023-03-21T21:34:23.081Z,47.47
2023-03-21T21:36:53.794Z,49.05
2023-03-21T21:39:26.353Z,49.17
2023-03-21T21:41:56.804Z,49.30
2023-03-21T21:44:26.963Z,51.03
2023-03-21T21:46:58.946Z,56.13
2023-03-21T21:49:29.714Z,55.13
2023-03-21T21:52:01.319Z,56.40
2023-03-21T21:54:31.777Z,53.83
2023-03-21T21:57:01.937Z,49.63
2023-03-21T21:59:32.141Z,47.15
2023-03-21T22:02:05.017Z,49.72
2023-03-21T22:04:36.296Z,49.05
2023-03-21T22:07:07.551Z,50.80
2023-03-21T22:09:37.951Z,51.05
2023-03-21T22:12:08.297Z,51.45
2023-03-21T22:14:38.667Z,52.20
2023-03-21T22:17:09.344Z,52.33
2023-03-21T22:19:40.317Z,52.80
2023-03-21T22:22:10.829Z,52.53
2023-03-21T22:24:41.024Z,51.70
2023-03-21T22:27:11.168Z,51.88
2023-03-21T22:29:41.455Z,52.80
2023-03-21T22:32:11.713Z,51.58
2023-03-21T22:34:41.940Z,51.65
2023-03-21T22:37:12.625Z,50.88
2023-03-21T22:39:42.858Z,52.08
2023-03-21T22:42:13.026Z,52.63
2023-03-21T22:44:43.405Z,54.45
2023-03-21T22:47:13.658Z,55.60
2023-03-21T22:49:47.833Z,56.28
2023-03-21T22:52:17.776Z,58.67
2023-03-21T22:54:49.329Z,57.40
2023-03-21T22:57:21.638Z,59.15
2023-03-21T22:59:51.951Z,57.90
2023-03-21T23:02:22.284Z,57.85
2023-03-21T23:04:52.743Z,55.13
2023-03-21T23:07:22.861Z,57.33
2023-03-21T23:09:53.470Z,55.97
2023-03-21T23:12:23.734Z,57.35
2023-03-21T23:14:53.856Z,56.97
2023-03-21T23:17:24.018Z,63.28
2023-03-21T23:19:54.947Z,57.55
2023-03-21T23:22:25.489Z,54.80
2023-03-21T23:24:55.691Z,53.83
2023-03-21T23:27:26.172Z,55.08
2023-03-21T23:29:58.736Z,52.35
2023-03-21T23:32:28.924Z,51.58
2023-03-21T23:34:59.389Z,52.22
2023-03-21T23:37:31.781Z,51.50
2023-03-21T23:40:02.074Z,52.10
2023-03-21T23:42:32.657Z,52.05
2023-03-21T23:45:03.018Z,49.30
2023-03-21T23:47:33.156Z,50.42
2023-03-21T23:50:03.520Z,52.55
2023-03-21T23:52:33.421Z,51.28
2023-03-21T23:55:03.544Z,50.17
2023-03-21T23:57:34.025Z,50.83
